sensor_id;sensor_type;location;lat;lon;timestamp;temperature;humidity
48206;DHT22;33995;48.202;16.260;2023-07-20T00:02:25;20.50;99.90
48206;DHT22;33995;48.202;16.260;2023-07-20T00:04:56;20.50;99.90
48206;DHT22;33995;48.202;16.260;2023-07-20T00:07:26;20.60;99.90
48206;DHT22;33995;48.202;16.260;2023-07-20T00:09:56;20.60;99.90
48206;DHT22;33995;48.202;16.260;2023-07-20T00:12:27;20.50;99.90
48206;DHT22;33995;48.202;16.260;2023-07-20T00:14:59;20.50;99.90
48206;DHT22;33995;48.202;16.260;2023-07-20T00:17:30;20.40;99.90
48206;DHT22;33995;48.202;16.260;2023-07-20T00:19:59;20.40;99.90
48206;DHT22;33995;48.202;16.260;2023-07-20T00:22:29;20.30;99.90
48206;DHT22;33995;48.202;16.260;2023-07-20T00:25:01;20.30;99.90
48206;DHT22;33995;48.202;16.260;2023-07-20T00:27:33;20.20;99.90
48206;DHT22;33995;48.202;16.260;2023-07-20T00:30:04;20.20;99.90
48206;DHT22;33995;48.202;16.260;2023-07-20T00:32:40;20.30;99.90
48206;DHT22;33995;48.202;16.260;2023-07-20T00:35:08;20.30;99.90
48206;DHT22;33995;48.202;16.260;2023-07-20T00:37:42;20.30;99.90
48206;DHT22;33995;48.202;16.260;2023-07-20T00:40:12;20.30;99.90
48206;DHT22;33995;48.202;16.260;2023-07-20T00:42:44;20.20;99.90
48206;DHT22;33995;48.202;16.260;2023-07-20T00:45:22;20.30;99.90
48206;DHT22;33995;48.202;16.260;2023-07-20T00:47:58;20.40;99.90
48206;DHT22;33995;48.202;16.260;2023-07-20T00:50:31;20.40;99.90
48206;DHT22;33995;48.202;16.260;2023-07-20T00:53:04;20.50;99.90
48206;DHT22;33995;48.202;16.260;2023-07-20T00:55:34;20.60;99.90
48206;DHT22;33995;48.202;16.260;2023-07-20T00:58:05;20.70;99.90
48206;DHT22;33995;48.202;16.260;2023-07-20T01:00:37;20.90;99.90
48206;DHT22;33995;48.202;16.260;2023-07-20T01:03:14;21.10;99.90
48206;DHT22;33995;48.202;16.260;2023-07-20T01:06:06;21.20;99.90
48206;DHT22;33995;48.202;16.260;2023-07-20T01:09:08;21.30;99.90
48206;DHT22;33995;48.202;16.260;2023-07-20T01:12:02;21.40;99.90
48206;DHT22;33995;48.202;16.260;2023-07-20T01:14:37;21.50;99.90
48206;DHT22;33995;48.202;16.260;2023-07-20T01:17:08;21.60;99.90
48206;DHT22;33995;48.202;16.260;2023-07-20T01:19:39;21.60;99.90
48206;DHT22;33995;48.202;16.260;2023-07-20T01:28:39;21.70;99.90
48206;DHT22;33995;48.202;16.260;2023-07-20T01:31:28;21.80;99.90
48206;DHT22;33995;48.202;16.260;2023-07-20T01:34:02;21.70;99.90
48206;DHT22;33995;48.202;16.260;2023-07-20T01:36:37;21.70;99.90
48206;DHT22;33995;48.202;16.260;2023-07-20T01:39:08;21.70;99.90
48206;DHT22;33995;48.202;16.260;2023-07-20T01:41:37;21.70;99.90
48206;DHT22;33995;48.202;16.260;2023-07-20T01:44:06;21.70;99.90
48206;DHT22;33995;48.202;16.260;2023-07-20T01:46:34;21.70;99.90
48206;DHT22;33995;48.202;16.260;2023-07-20T01:49:10;21.70;99.90
48206;DHT22;33995;48.202;16.260;2023-07-20T01:51:41;21.80;99.90
48206;DHT22;33995;48.202;16.260;2023-07-20T01:54:12;21.70;99.90
48206;DHT22;33995;48.202;16.260;2023-07-20T01:56:42;21.80;99.90
48206;DHT22;33995;48.202;16.260;2023-07-20T01:59:13;21.80;99.90
48206;DHT22;33995;48.202;16.260;2023-07-20T02:01:43;21.80;99.90
48206;DHT22;33995;48.202;16.260;2023-07-20T02:04:12;21.80;99.90
48206;DHT22;33995;48.202;16.260;2023-07-20T02:06:44;21.70;99.90
48206;DHT22;33995;48.202;16.260;2023-07-20T02:09:12;21.70;99.90
48206;DHT22;33995;48.202;16.260;2023-07-20T02:11:42;21.70;99.90
48206;DHT22;33995;48.202;16.260;2023-07-20T02:14:12;21.70;99.90
48206;DHT22;33995;48.202;16.260;2023-07-20T02:16:43;21.60;99.90
48206;DHT22;33995;48.202;16.260;2023-07-20T02:19:14;21.70;99.90
48206;DHT22;33995;48.202;16.260;2023-07-20T02:21:44;21.60;99.90
48206;DHT22;33995;48.202;16.260;2023-07-20T02:24:15;21.60;99.90
48206;DHT22;33995;48.202;16.260;2023-07-20T02:26:52;21.60;99.90
48206;DHT22;33995;48.202;16.260;2023-07-20T02:29:26;21.60;99.90
48206;DHT22;33995;48.202;16.260;2023-07-20T02:32:06;21.60;99.90
48206;DHT22;33995;48.202;16.260;2023-07-20T02:34:38;21.60;99.90
48206;DHT22;33995;48.202;16.260;2023-07-20T02:37:07;21.60;99.90
48206;DHT22;33995;48.202;16.260;2023-07-20T02:39:39;21.60;99.90
48206;DHT22;33995;48.202;16.260;2023-07-20T02:42:08;21.60;99.90
48206;DHT22;33995;48.202;16.260;2023-07-20T02:44:39;21.60;99.90
48206;DHT22;33995;48.202;16.260;2023-07-20T02:47:12;21.60;99.90
48206;DHT22;33995;48.202;16.260;2023-07-20T02:49:45;21.60;99.90
48206;DHT22;33995;48.202;16.260;2023-07-20T02:52:22;21.60;99.90
48206;DHT22;33995;48.202;16.260;2023-07-20T02:54:54;21.60;99.90
48206;DHT22;33995;48.202;16.260;2023-07-20T02:57:23;21.50;99.90
48206;DHT22;33995;48.202;16.260;2023-07-20T02:59:54;21.50;99.90
48206;DHT22;33995;48.202;16.260;2023-07-20T03:02:25;21.50;99.90
48206;DHT22;33995;48.202;16.260;2023-07-20T03:05:00;21.50;99.90
48206;DHT22;33995;48.202;16.260;2023-07-20T03:07:32;21.50;99.90
48206;DHT22;33995;48.202;16.260;2023-07-20T03:10:03;21.40;99.90
48206;DHT22;33995;48.202;16.260;2023-07-20T03:12:33;21.40;99.90
48206;DHT22;33995;48.202;16.260;2023-07-20T03:15:06;21.40;99.90
48206;DHT22;33995;48.202;16.260;2023-07-20T03:17:36;21.40;99.90
48206;DHT22;33995;48.202;16.260;2023-07-20T03:20:15;21.40;99.90
48206;DHT22;33995;48.202;16.260;2023-07-20T03:22:46;21.40;99.90
48206;DHT22;33995;48.202;16.260;2023-07-20T03:25:15;21.40;99.90
48206;DHT22;33995;48.202;16.260;2023-07-20T03:27:45;21.40;99.90
48206;DHT22;33995;48.202;16.260;2023-07-20T03:30:18;21.30;99.90
48206;DHT22;33995;48.202;16.260;2023-07-20T03:32:50;21.30;99.90
48206;DHT22;33995;48.202;16.260;2023-07-20T03:35:20;21.40;99.90
48206;DHT22;33995;48.202;16.260;2023-07-20T03:37:50;21.40;99.90
48206;DHT22;33995;48.202;16.260;2023-07-20T03:40:18;21.40;99.90
48206;DHT22;33995;48.202;16.260;2023-07-20T03:42:47;21.40;99.90
48206;DHT22;33995;48.202;16.260;2023-07-20T03:45:17;21.50;99.90
48206;DHT22;33995;48.202;16.260;2023-07-20T03:47:48;21.50;99.90
48206;DHT22;33995;48.202;16.260;2023-07-20T03:50:18;21.60;99.90
48206;DHT22;33995;48.202;16.260;2023-07-20T03:52:48;21.50;99.90
48206;DHT22;33995;48.202;16.260;2023-07-20T03:55:16;21.50;99.90
48206;DHT22;33995;48.202;16.260;2023-07-20T03:57:46;21.50;99.90
48206;DHT22;33995;48.202;16.260;2023-07-20T04:00:19;21.50;99.90
48206;DHT22;33995;48.202;16.260;2023-07-20T04:02:53;21.50;99.90
48206;DHT22;33995;48.202;16.260;2023-07-20T04:05:25;21.50;99.90
48206;DHT22;33995;48.202;16.260;2023-07-20T04:08:02;21.60;99.90
48206;DHT22;33995;48.202;16.260;2023-07-20T04:10:35;21.60;99.90
48206;DHT22;33995;48.202;16.260;2023-07-20T04:13:09;21.60;99.90
48206;DHT22;33995;48.202;16.260;2023-07-20T04:15:42;21.60;99.90
48206;DHT22;33995;48.202;16.260;2023-07-20T04:18:13;21.70;99.90
48206;DHT22;33995;48.202;16.260;2023-07-20T04:20:41;21.70;99.90
48206;DHT22;33995;48.202;16.260;2023-07-20T04:23:12;21.70;99.90
48206;DHT22;33995;48.202;16.260;2023-07-20T04:25:42;21.70;99.90
48206;DHT22;33995;48.202;16.260;2023-07-20T04:28:18;21.70;99.90
48206;DHT22;33995;48.202;16.260;2023-07-20T04:30:52;21.80;99.90
48206;DHT22;33995;48.202;16.260;2023-07-20T04:33:21;21.80;99.90
48206;DHT22;33995;48.202;16.260;2023-07-20T04:35:53;21.80;99.90
48206;DHT22;33995;48.202;16.260;2023-07-20T04:38:29;21.80;99.90
48206;DHT22;33995;48.202;16.260;2023-07-20T04:41:06;21.80;99.90
48206;DHT22;33995;48.202;16.260;2023-07-20T04:43:44;21.90;99.90
48206;DHT22;33995;48.202;16.260;2023-07-20T04:46:20;21.90;99.90
48206;DHT22;33995;48.202;16.260;2023-07-20T04:49:02;21.90;99.90
48206;DHT22;33995;48.202;16.260;2023-07-20T04:51:45;21.90;99.90
48206;DHT22;33995;48.202;16.260;2023-07-20T04:54:14;21.90;99.90
48206;DHT22;33995;48.202;16.260;2023-07-20T04:56:50;21.90;99.90
48206;DHT22;33995;48.202;16.260;2023-07-20T04:59:22;21.90;99.90
48206;DHT22;33995;48.202;16.260;2023-07-20T05:01:53;21.90;99.90
48206;DHT22;33995;48.202;16.260;2023-07-20T05:04:24;21.90;99.90
48206;DHT22;33995;48.202;16.260;2023-07-20T05:07:06;22.00;99.90
48206;DHT22;33995;48.202;16.260;2023-07-20T05:09:36;22.00;99.90
48206;DHT22;33995;48.202;16.260;2023-07-20T05:12:09;22.00;99.90
48206;DHT22;33995;48.202;16.260;2023-07-20T05:14:45;22.00;99.90
48206;DHT22;33995;48.202;16.260;2023-07-20T05:17:14;22.00;99.90
48206;DHT22;33995;48.202;16.260;2023-07-20T05:19:43;22.10;99.90
48206;DHT22;33995;48.202;16.260;2023-07-20T05:22:22;22.10;99.90
48206;DHT22;33995;48.202;16.260;2023-07-20T05:24:56;22.10;99.90
48206;DHT22;33995;48.202;16.260;2023-07-20T05:27:26;22.10;99.90
48206;DHT22;33995;48.202;16.260;2023-07-20T05:30:00;22.10;99.90
48206;DHT22;33995;48.202;16.260;2023-07-20T05:32:31;22.10;99.90
48206;DHT22;33995;48.202;16.260;2023-07-20T05:35:01;22.10;99.90
48206;DHT22;33995;48.202;16.260;2023-07-20T05:37:37;22.30;99.90
48206;DHT22;33995;48.202;16.260;2023-07-20T05:40:07;22.30;99.90
48206;DHT22;33995;48.202;16.260;2023-07-20T05:42:38;22.30;99.90
48206;DHT22;33995;48.202;16.260;2023-07-20T05:45:06;22.40;99.90
48206;DHT22;33995;48.202;16.260;2023-07-20T05:47:37;22.40;99.90
48206;DHT22;33995;48.202;16.260;2023-07-20T05:50:07;22.40;99.90
48206;DHT22;33995;48.202;16.260;2023-07-20T05:52:42;22.40;99.90
48206;DHT22;33995;48.202;16.260;2023-07-20T05:55:12;22.40;99.90
48206;DHT22;33995;48.202;16.260;2023-07-20T05:57:43;22.40;99.90
48206;DHT22;33995;48.202;16.260;2023-07-20T06:00:14;22.50;99.90
48206;DHT22;33995;48.202;16.260;2023-07-20T06:02:42;22.60;99.90
48206;DHT22;33995;48.202;16.260;2023-07-20T06:05:19;22.60;99.90
48206;DHT22;33995;48.202;16.260;2023-07-20T06:07:56;22.70;99.90
48206;DHT22;33995;48.202;16.260;2023-07-20T06:10:28;22.80;99.90
48206;DHT22;33995;48.202;16.260;2023-07-20T06:12:56;22.80;99.90
48206;DHT22;33995;48.202;16.260;2023-07-20T06:15:32;23.00;99.90
48206;DHT22;33995;48.202;16.260;2023-07-20T06:18:08;23.00;99.90
48206;DHT22;33995;48.202;16.260;2023-07-20T06:20:38;23.10;99.90
48206;DHT22;33995;48.202;16.260;2023-07-20T06:23:10;23.10;99.90
48206;DHT22;33995;48.202;16.260;2023-07-20T06:25:40;23.20;99.90
48206;DHT22;33995;48.202;16.260;2023-07-20T06:28:25;23.30;99.90
48206;DHT22;33995;48.202;16.260;2023-07-20T06:31:02;23.50;99.90
48206;DHT22;33995;48.202;16.260;2023-07-20T06:33:34;23.60;99.90
48206;DHT22;33995;48.202;16.260;2023-07-20T06:36:05;23.60;99.90
48206;DHT22;33995;48.202;16.260;2023-07-20T06:38:33;23.70;99.90
48206;DHT22;33995;48.202;16.260;2023-07-20T06:41:05;23.70;99.90
48206;DHT22;33995;48.202;16.260;2023-07-20T06:43:45;23.70;99.90
48206;DHT22;33995;48.202;16.260;2023-07-20T06:46:18;23.80;99.90
48206;DHT22;33995;48.202;16.260;2023-07-20T06:48:49;23.80;99.90
48206;DHT22;33995;48.202;16.260;2023-07-20T06:51:25;23.80;99.90
48206;DHT22;33995;48.202;16.260;2023-07-20T06:53:55;23.90;99.90
48206;DHT22;33995;48.202;16.260;2023-07-20T06:56:23;23.90;99.90
48206;DHT22;33995;48.202;16.260;2023-07-20T06:58:59;24.00;99.90
48206;DHT22;33995;48.202;16.260;2023-07-20T07:01:27;24.00;99.90
48206;DHT22;33995;48.202;16.260;2023-07-20T07:03:56;24.10;99.90
48206;DHT22;33995;48.202;16.260;2023-07-20T07:06:30;24.10;99.90
48206;DHT22;33995;48.202;16.260;2023-07-20T07:09:02;24.20;99.90
48206;DHT22;33995;48.202;16.260;2023-07-20T07:11:38;24.30;99.90
48206;DHT22;33995;48.202;16.260;2023-07-20T07:14:07;24.40;99.90
48206;DHT22;33995;48.202;16.260;2023-07-20T07:16:39;24.50;99.90
48206;DHT22;33995;48.202;16.260;2023-07-20T07:19:11;24.60;99.90
48206;DHT22;33995;48.202;16.260;2023-07-20T07:21:54;24.70;99.90
48206;DHT22;33995;48.202;16.260;2023-07-20T07:24:29;24.90;99.90
48206;DHT22;33995;48.202;16.260;2023-07-20T07:27:05;25.00;99.90
48206;DHT22;33995;48.202;16.260;2023-07-20T07:29:35;25.20;99.90
48206;DHT22;33995;48.202;16.260;2023-07-20T07:32:08;25.30;99.90
48206;DHT22;33995;48.202;16.260;2023-07-20T07:34:41;25.50;99.90
48206;DHT22;33995;48.202;16.260;2023-07-20T07:37:14;25.60;99.90
48206;DHT22;33995;48.202;16.260;2023-07-20T07:39:52;25.70;99.90
48206;DHT22;33995;48.202;16.260;2023-07-20T07:42:19;25.80;99.90
48206;DHT22;33995;48.202;16.260;2023-07-20T07:44:52;25.90;99.90
48206;DHT22;33995;48.202;16.260;2023-07-20T07:47:27;25.70;99.90
48206;DHT22;33995;48.202;16.260;2023-07-20T07:49:55;25.90;99.90
48206;DHT22;33995;48.202;16.260;2023-07-20T07:52:31;25.90;99.90
48206;DHT22;33995;48.202;16.260;2023-07-20T07:55:05;25.90;99.90
48206;DHT22;33995;48.202;16.260;2023-07-20T07:57:34;25.90;99.90
48206;DHT22;33995;48.202;16.260;2023-07-20T08:00:06;26.00;99.90
48206;DHT22;33995;48.202;16.260;2023-07-20T08:02:44;26.20;99.90
48206;DHT22;33995;48.202;16.260;2023-07-20T08:05:18;26.20;99.90
48206;DHT22;33995;48.202;16.260;2023-07-20T08:07:45;26.30;99.90
48206;DHT22;33995;48.202;16.260;2023-07-20T08:10:16;26.40;99.90
48206;DHT22;33995;48.202;16.260;2023-07-20T08:12:47;26.40;99.90
48206;DHT22;33995;48.202;16.260;2023-07-20T08:15:15;26.40;99.90
48206;DHT22;33995;48.202;16.260;2023-07-20T08:18:18;26.50;99.90
48206;DHT22;33995;48.202;16.260;2023-07-20T08:20:53;26.30;99.90
48206;DHT22;33995;48.202;16.260;2023-07-20T08:23:25;26.10;99.90
48206;DHT22;33995;48.202;16.260;2023-07-20T08:25:59;25.90;99.90
48206;DHT22;33995;48.202;16.260;2023-07-20T08:28:32;25.70;99.90
48206;DHT22;33995;48.202;16.260;2023-07-20T08:31:05;25.60;99.90
48206;DHT22;33995;48.202;16.260;2023-07-20T08:33:37;25.50;99.90
48206;DHT22;33995;48.202;16.260;2023-07-20T08:36:06;25.60;99.90
48206;DHT22;33995;48.202;16.260;2023-07-20T08:38:46;25.60;99.90
48206;DHT22;33995;48.202;16.260;2023-07-20T08:41:20;25.60;99.90
48206;DHT22;33995;48.202;16.260;2023-07-20T08:43:49;25.60;99.90
48206;DHT22;33995;48.202;16.260;2023-07-20T08:46:23;25.70;99.90
48206;DHT22;33995;48.202;16.260;2023-07-20T08:48:53;25.60;99.90
48206;DHT22;33995;48.202;16.260;2023-07-20T08:51:25;25.50;99.90
48206;DHT22;33995;48.202;16.260;2023-07-20T08:53:58;25.50;99.90
48206;DHT22;33995;48.202;16.260;2023-07-20T08:56:31;25.50;99.90
48206;DHT22;33995;48.202;16.260;2023-07-20T08:59:03;25.60;99.90
48206;DHT22;33995;48.202;16.260;2023-07-20T09:01:34;25.70;99.90
48206;DHT22;33995;48.202;16.260;2023-07-20T09:04:06;25.70;99.90
48206;DHT22;33995;48.202;16.260;2023-07-20T09:06:40;25.70;99.90
48206;DHT22;33995;48.202;16.260;2023-07-20T09:09:13;25.70;99.90
48206;DHT22;33995;48.202;16.260;2023-07-20T09:11:51;25.80;99.90
48206;DHT22;33995;48.202;16.260;2023-07-20T09:14:24;25.70;99.90
48206;DHT22;33995;48.202;16.260;2023-07-20T09:16:57;25.70;99.90
48206;DHT22;33995;48.202;16.260;2023-07-20T09:19:25;25.70;99.90
48206;DHT22;33995;48.202;16.260;2023-07-20T09:22:01;25.90;99.90
48206;DHT22;33995;48.202;16.260;2023-07-20T09:24:32;26.10;99.90
48206;DHT22;33995;48.202;16.260;2023-07-20T09:27:07;26.40;99.90
48206;DHT22;33995;48.202;16.260;2023-07-20T09:29:52;26.50;99.90
48206;DHT22;33995;48.202;16.260;2023-07-20T09:32:50;26.40;99.90
48206;DHT22;33995;48.202;16.260;2023-07-20T09:35:22;26.50;99.90
48206;DHT22;33995;48.202;16.260;2023-07-20T09:38:09;26.60;99.90
48206;DHT22;33995;48.202;16.260;2023-07-20T09:40:42;26.70;99.70
48206;DHT22;33995;48.202;16.260;2023-07-20T09:43:12;26.90;99.90
48206;DHT22;33995;48.202;16.260;2023-07-20T09:45:46;27.10;99.70
48206;DHT22;33995;48.202;16.260;2023-07-20T09:48:18;27.00;99.50
48206;DHT22;33995;48.202;16.260;2023-07-20T09:50:56;27.10;99.80
48206;DHT22;33995;48.202;16.260;2023-07-20T09:53:27;27.20;99.50
48206;DHT22;33995;48.202;16.260;2023-07-20T09:55:55;27.30;99.60
48206;DHT22;33995;48.202;16.260;2023-07-20T09:58:27;27.50;99.20
48206;DHT22;33995;48.202;16.260;2023-07-20T10:01:01;27.60;98.90
48206;DHT22;33995;48.202;16.260;2023-07-20T10:03:45;27.60;98.80
48206;DHT22;33995;48.202;16.260;2023-07-20T10:06:18;27.40;98.70
48206;DHT22;33995;48.202;16.260;2023-07-20T10:09:02;27.30;99.00
48206;DHT22;33995;48.202;16.260;2023-07-20T10:11:37;27.30;99.10
48206;DHT22;33995;48.202;16.260;2023-07-20T10:14:16;27.60;98.50
48206;DHT22;33995;48.202;16.260;2023-07-20T10:16:50;27.70;98.40
48206;DHT22;33995;48.202;16.260;2023-07-20T10:19:50;27.80;97.40
48206;DHT22;33995;48.202;16.260;2023-07-20T10:22:26;28.00;97.60
48206;DHT22;33995;48.202;16.260;2023-07-20T10:24:56;28.00;97.30
48206;DHT22;33995;48.202;16.260;2023-07-20T10:27:30;28.00;97.50
48206;DHT22;33995;48.202;16.260;2023-07-20T10:30:02;27.90;97.30
48206;DHT22;33995;48.202;16.260;2023-07-20T10:32:36;27.90;97.40
48206;DHT22;33995;48.202;16.260;2023-07-20T10:35:17;27.80;97.10
48206;DHT22;33995;48.202;16.260;2023-07-20T10:38:03;27.80;97.20
48206;DHT22;33995;48.202;16.260;2023-07-20T10:40:38;28.00;97.80
48206;DHT22;33995;48.202;16.260;2023-07-20T10:43:07;28.10;97.30
48206;DHT22;33995;48.202;16.260;2023-07-20T10:45:54;28.20;97.40
48206;DHT22;33995;48.202;16.260;2023-07-20T10:48:32;28.10;96.70
48206;DHT22;33995;48.202;16.260;2023-07-20T10:51:19;28.10;96.40
48206;DHT22;33995;48.202;16.260;2023-07-20T10:54:02;28.10;96.40
48206;DHT22;33995;48.202;16.260;2023-07-20T10:56:33;28.00;96.20
48206;DHT22;33995;48.202;16.260;2023-07-20T10:59:18;28.00;96.60
48206;DHT22;33995;48.202;16.260;2023-07-20T11:01:57;28.20;96.10
48206;DHT22;33995;48.202;16.260;2023-07-20T11:05:01;28.20;95.80
48206;DHT22;33995;48.202;16.260;2023-07-20T11:07:38;28.20;96.10
48206;DHT22;33995;48.202;16.260;2023-07-20T11:10:16;28.00;96.10
48206;DHT22;33995;48.202;16.260;2023-07-20T11:18:29;28.20;96.10
48206;DHT22;33995;48.202;16.260;2023-07-20T11:21:01;28.40;95.60
48206;DHT22;33995;48.202;16.260;2023-07-20T11:23:38;28.60;95.70
48206;DHT22;33995;48.202;16.260;2023-07-20T11:26:11;28.70;95.10
48206;DHT22;33995;48.202;16.260;2023-07-20T11:28:41;28.60;95.00
48206;DHT22;33995;48.202;16.260;2023-07-20T11:31:15;28.50;94.80
48206;DHT22;33995;48.202;16.260;2023-07-20T11:33:50;28.50;95.40
48206;DHT22;33995;48.202;16.260;2023-07-20T11:36:42;28.60;95.30
48206;DHT22;33995;48.202;16.260;2023-07-20T11:39:22;28.70;95.10
48206;DHT22;33995;48.202;16.260;2023-07-20T11:41:57;28.70;95.20
48206;DHT22;33995;48.202;16.260;2023-07-20T11:44:28;28.20;94.60
48206;DHT22;33995;48.202;16.260;2023-07-20T11:47:16;27.90;94.90
48206;DHT22;33995;48.202;16.260;2023-07-20T11:49:50;28.00;95.30
48206;DHT22;33995;48.202;16.260;2023-07-20T11:52:25;28.20;94.80
48206;DHT22;33995;48.202;16.260;2023-07-20T11:54:57;28.30;94.20
48206;DHT22;33995;48.202;16.260;2023-07-20T11:57:29;28.00;94.60
48206;DHT22;33995;48.202;16.260;2023-07-20T12:00:04;27.90;95.00
48206;DHT22;33995;48.202;16.260;2023-07-20T12:02:40;27.80;95.10
48206;DHT22;33995;48.202;16.260;2023-07-20T12:05:17;27.90;94.50
48206;DHT22;33995;48.202;16.260;2023-07-20T12:07:57;27.90;94.70
48206;DHT22;33995;48.202;16.260;2023-07-20T12:10:28;27.90;94.50
48206;DHT22;33995;48.202;16.260;2023-07-20T12:13:03;27.80;94.50
48206;DHT22;33995;48.202;16.260;2023-07-20T12:15:32;27.80;94.60
48206;DHT22;33995;48.202;16.260;2023-07-20T12:18:02;27.90;94.30
48206;DHT22;33995;48.202;16.260;2023-07-20T12:20:35;27.90;94.50
48206;DHT22;33995;48.202;16.260;2023-07-20T12:23:12;27.90;94.40
48206;DHT22;33995;48.202;16.260;2023-07-20T12:25:46;28.00;94.30
48206;DHT22;33995;48.202;16.260;2023-07-20T12:28:19;28.10;93.90
48206;DHT22;33995;48.202;16.260;2023-07-20T12:30:51;28.20;94.00
48206;DHT22;33995;48.202;16.260;2023-07-20T12:33:34;28.20;93.10
48206;DHT22;33995;48.202;16.260;2023-07-20T12:36:03;28.30;92.80
48206;DHT22;33995;48.202;16.260;2023-07-20T12:38:33;28.20;92.60
48206;DHT22;33995;48.202;16.260;2023-07-20T12:41:03;28.20;92.50
48206;DHT22;33995;48.202;16.260;2023-07-20T12:43:35;28.20;92.70
48206;DHT22;33995;48.202;16.260;2023-07-20T12:46:07;28.30;92.30
48206;DHT22;33995;48.202;16.260;2023-07-20T12:48:39;28.30;92.00
48206;DHT22;33995;48.202;16.260;2023-07-20T12:51:20;28.40;92.20
48206;DHT22;33995;48.202;16.260;2023-07-20T12:53:51;28.40;92.00
48206;DHT22;33995;48.202;16.260;2023-07-20T12:56:28;28.50;92.00
48206;DHT22;33995;48.202;16.260;2023-07-20T12:59:02;28.50;92.00
48206;DHT22;33995;48.202;16.260;2023-07-20T13:01:32;28.50;91.30
48206;DHT22;33995;48.202;16.260;2023-07-20T13:04:05;28.50;91.60
48206;DHT22;33995;48.202;16.260;2023-07-20T13:06:38;28.60;91.70
48206;DHT22;33995;48.202;16.260;2023-07-20T13:09:04;28.60;91.50
48206;DHT22;33995;48.202;16.260;2023-07-20T13:11:40;28.60;91.50
48206;DHT22;33995;48.202;16.260;2023-07-20T13:14:14;28.70;91.50
48206;DHT22;33995;48.202;16.260;2023-07-20T13:16:46;28.70;91.50
48206;DHT22;33995;48.202;16.260;2023-07-20T13:19:22;28.70;91.40
48206;DHT22;33995;48.202;16.260;2023-07-20T13:21:57;28.60;91.20
48206;DHT22;33995;48.202;16.260;2023-07-20T13:24:24;28.70;91.10
48206;DHT22;33995;48.202;16.260;2023-07-20T13:26:56;28.70;91.20
48206;DHT22;33995;48.202;16.260;2023-07-20T13:29:25;28.80;91.40
48206;DHT22;33995;48.202;16.260;2023-07-20T13:31:58;28.90;90.90
48206;DHT22;33995;48.202;16.260;2023-07-20T13:34:28;28.90;91.00
48206;DHT22;33995;48.202;16.260;2023-07-20T13:37:01;29.00;90.60
48206;DHT22;33995;48.202;16.260;2023-07-20T13:39:34;29.00;90.60
48206;DHT22;33995;48.202;16.260;2023-07-20T13:42:03;29.00;90.40
48206;DHT22;33995;48.202;16.260;2023-07-20T13:44:33;29.00;90.70
48206;DHT22;33995;48.202;16.260;2023-07-20T13:47:05;28.80;89.90
48206;DHT22;33995;48.202;16.260;2023-07-20T13:49:40;28.80;90.00
48206;DHT22;33995;48.202;16.260;2023-07-20T13:52:16;28.80;90.20
48206;DHT22;33995;48.202;16.260;2023-07-20T13:54:50;28.80;89.80
48206;DHT22;33995;48.202;16.260;2023-07-20T13:57:24;28.90;90.20
48206;DHT22;33995;48.202;16.260;2023-07-20T13:59:55;28.80;89.30
48206;DHT22;33995;48.202;16.260;2023-07-20T14:02:49;28.80;90.10
48206;DHT22;33995;48.202;16.260;2023-07-20T14:05:22;28.90;90.20
48206;DHT22;33995;48.202;16.260;2023-07-20T14:07:56;28.90;89.50
48206;DHT22;33995;48.202;16.260;2023-07-20T14:10:27;29.00;89.40
48206;DHT22;33995;48.202;16.260;2023-07-20T14:12:55;29.00;89.10
48206;DHT22;33995;48.202;16.260;2023-07-20T14:15:26;29.00;89.10
48206;DHT22;33995;48.202;16.260;2023-07-20T14:17:55;29.00;89.90
48206;DHT22;33995;48.202;16.260;2023-07-20T14:20:37;29.00;90.50
48206;DHT22;33995;48.202;16.260;2023-07-20T14:23:13;29.00;90.00
48206;DHT22;33995;48.202;16.260;2023-07-20T14:25:53;29.00;91.10
48206;DHT22;33995;48.202;16.260;2023-07-20T14:28:26;28.90;90.00
48206;DHT22;33995;48.202;16.260;2023-07-20T14:30:57;28.90;90.00
48206;DHT22;33995;48.202;16.260;2023-07-20T14:33:36;29.00;90.30
48206;DHT22;33995;48.202;16.260;2023-07-20T14:36:07;29.10;90.40
48206;DHT22;33995;48.202;16.260;2023-07-20T14:38:39;29.10;90.40
48206;DHT22;33995;48.202;16.260;2023-07-20T14:41:11;28.90;90.00
48206;DHT22;33995;48.202;16.260;2023-07-20T14:43:41;28.80;89.70
48206;DHT22;33995;48.202;16.260;2023-07-20T14:46:09;28.90;89.50
48206;DHT22;33995;48.202;16.260;2023-07-20T14:48:37;28.90;90.00
48206;DHT22;33995;48.202;16.260;2023-07-20T14:51:08;28.80;89.90
48206;DHT22;33995;48.202;16.260;2023-07-20T14:53:39;28.80;90.20
48206;DHT22;33995;48.202;16.260;2023-07-20T14:56:11;28.80;90.70
48206;DHT22;33995;48.202;16.260;2023-07-20T14:58:42;28.70;89.70
48206;DHT22;33995;48.202;16.260;2023-07-20T15:01:13;28.80;90.00
48206;DHT22;33995;48.202;16.260;2023-07-20T15:03:48;28.70;90.30
48206;DHT22;33995;48.202;16.260;2023-07-20T15:06:26;28.70;90.50
48206;DHT22;33995;48.202;16.260;2023-07-20T15:08:59;28.60;90.50
48206;DHT22;33995;48.202;16.260;2023-07-20T15:11:31;28.60;90.80
48206;DHT22;33995;48.202;16.260;2023-07-20T15:14:02;28.60;90.60
48206;DHT22;33995;48.202;16.260;2023-07-20T15:16:34;28.50;90.30
48206;DHT22;33995;48.202;16.260;2023-07-20T15:19:08;28.40;90.40
48206;DHT22;33995;48.202;16.260;2023-07-20T15:21:39;28.30;90.70
48206;DHT22;33995;48.202;16.260;2023-07-20T15:24:11;28.20;90.90
48206;DHT22;33995;48.202;16.260;2023-07-20T15:26:44;28.20;91.00
48206;DHT22;33995;48.202;16.260;2023-07-20T15:29:14;28.20;91.00
48206;DHT22;33995;48.202;16.260;2023-07-20T15:31:46;28.10;91.00
48206;DHT22;33995;48.202;16.260;2023-07-20T15:34:18;28.00;91.40
48206;DHT22;33995;48.202;16.260;2023-07-20T15:36:50;28.00;90.60
48206;DHT22;33995;48.202;16.260;2023-07-20T15:39:20;27.90;91.40
48206;DHT22;33995;48.202;16.260;2023-07-20T15:41:50;27.90;91.30
48206;DHT22;33995;48.202;16.260;2023-07-20T15:44:22;27.80;90.90
48206;DHT22;33995;48.202;16.260;2023-07-20T15:46:52;27.80;90.80
48206;DHT22;33995;48.202;16.260;2023-07-20T15:49:23;27.80;91.10
48206;DHT22;33995;48.202;16.260;2023-07-20T15:52:01;27.70;90.80
48206;DHT22;33995;48.202;16.260;2023-07-20T15:54:36;27.60;91.10
48206;DHT22;33995;48.202;16.260;2023-07-20T15:57:09;27.60;90.80
48206;DHT22;33995;48.202;16.260;2023-07-20T15:59:39;27.50;91.60
48206;DHT22;33995;48.202;16.260;2023-07-20T16:02:08;27.60;91.70
48206;DHT22;33995;48.202;16.260;2023-07-20T16:04:38;27.50;90.80
48206;DHT22;33995;48.202;16.260;2023-07-20T16:07:07;27.40;91.00